Time;durP1;ratioP1;P1;durP2;ratioP2;P2;SDS_P1;SDS_P2;PMS_P1;PMS_P2;Temp;Humidity;BMP_temperature;BMP_pressure;BME280_temperature;BME280_humidity;BME280_pressure;Samples;Min_cycle;Max_cycle;Signal;HPM_P1;HPM_P2
2022/09/05 00:04:14;;;;;;;11.25;8.73;;;14.00;99.90;;;;;;9709251;30;20053;-82
2022/09/05 00:09:27;;;;;;;13.02;9.45;;;13.90;99.90;;;;;;9687751;30;20057;-83
2022/09/05 00:14:53;;;;;;;12.30;9.20;;;13.80;99.90;;;;;;9703194;30;20033;-81
2022/09/05 00:20:38;;;;;;;11.25;9.52;;;13.80;99.90;;;;;;9704681;30;20045;-81
2022/09/05 00:25:48;;;;;;;11.38;9.10;;;13.80;99.90;;;;;;9692059;30;20604;-81
2022/09/05 00:31:13;;;;;;;15.55;8.95;;;13.80;99.90;;;;;;9700015;30;20041;-81
2022/09/05 00:36:44;;;;;;;10.30;8.60;;;13.70;99.90;;;;;;9699278;30;20045;-81
2022/09/05 00:41:50;;;;;;;12.50;8.63;;;13.70;99.90;;;;;;9698831;30;20137;-81
2022/09/05 00:47:15;;;;;;;13.95;9.65;;;13.60;99.90;;;;;;9702176;30;20431;-80
2022/09/05 00:52:23;;;;;;;12.25;9.40;;;13.50;99.90;;;;;;9674402;30;20038;-83
2022/09/05 00:57:54;;;;;;;13.10;10.20;;;13.40;99.90;;;;;;9686927;30;20037;-81
2022/09/05 01:03:24;;;;;;;14.40;10.43;;;13.30;99.90;;;;;;9698746;30;20580;-82
2022/09/05 01:08:47;;;;;;;13.93;10.40;;;13.20;99.90;;;;;;9694110;30;20052;-83
2022/09/05 01:14:02;;;;;;;16.80;11.45;;;13.00;99.90;;;;;;9687733;30;20038;-81
2022/09/05 01:19:40;;;;;;;19.52;11.05;;;12.90;99.90;;;;;;9687412;30;20095;-80
2022/09/05 01:25:11;;;;;;;16.38;11.15;;;12.90;99.90;;;;;;9668782;30;20089;-82
2022/09/05 01:30:22;;;;;;;13.93;10.73;;;12.80;99.90;;;;;;9695009;30;20141;-82
2022/09/05 01:35:35;;;;;;;15.88;10.88;;;12.80;99.90;;;;;;9692426;30;20049;-84
2022/09/05 01:40:52;;;;;;;16.98;11.25;;;12.70;99.90;;;;;;9694291;30;20057;-81
2022/09/05 01:46:01;;;;;;;15.38;11.77;;;12.60;99.90;;;;;;9677318;30;20030;-80
2022/09/05 01:51:31;;;;;;;18.05;13.25;;;12.50;99.90;;;;;;9706581;30;20095;-83
2022/09/05 01:56:46;;;;;;;16.90;12.60;;;12.50;99.90;;;;;;9689121;30;20149;-82
2022/09/05 02:02:08;;;;;;;18.17;12.65;;;12.50;99.90;;;;;;9684568;30;20140;-81
2022/09/05 02:07:21;;;;;;;18.33;12.13;;;12.50;99.90;;;;;;9696025;30;20452;-82
2022/09/05 02:12:48;;;;;;;16.88;12.77;;;12.50;99.90;;;;;;9680500;30;20671;-82
2022/09/05 02:17:54;;;;;;;20.80;13.60;;;12.50;99.90;;;;;;9692004;30;20073;-82
2022/09/05 02:23:08;;;;;;;21.45;13.60;;;12.50;99.90;;;;;;9701678;30;20038;-81
2022/09/05 02:28:16;;;;;;;19.90;14.85;;;12.40;99.90;;;;;;9696566;30;20679;-84
2022/09/05 02:33:28;;;;;;;23.00;15.15;;;12.40;99.90;;;;;;9690183;30;20073;-81
2022/09/05 02:38:58;;;;;;;24.25;16.08;;;12.30;99.90;;;;;;9697186;30;20112;-81
2022/09/05 02:44:02;;;;;;;25.52;16.67;;;12.20;99.90;;;;;;9693176;30;20537;-83
2022/09/05 02:49:30;;;;;;;24.90;16.33;;;12.20;99.90;;;;;;9685021;30;20085;-82
2022/09/05 02:54:38;;;;;;;26.02;16.67;;;12.20;99.90;;;;;;9672816;30;20424;-82
2022/09/05 02:59:45;;;;;;;25.80;17.30;;;12.10;99.90;;;;;;9688391;30;20787;-83
2022/09/05 03:05:18;;;;;;;26.17;16.42;;;12.10;99.90;;;;;;9694144;30;20096;-83
2022/09/05 03:10:57;;;;;;;27.27;17.48;;;12.00;99.90;;;;;;9691167;30;20038;-84
2022/09/05 03:16:08;;;;;;;27.58;18.25;;;12.00;99.90;;;;;;9692003;30;20121;-82
2022/09/05 03:21:36;;;;;;;31.27;18.65;;;11.90;99.90;;;;;;9692893;30;20136;-82
2022/09/05 03:27:14;;;;;;;27.27;17.10;;;11.80;99.90;;;;;;9690165;30;20040;-81
2022/09/05 03:32:48;;;;;;;27.63;17.70;;;11.80;99.90;;;;;;9658971;30;20107;-81
2022/09/05 03:37:55;;;;;;;27.83;18.23;;;11.80;99.90;;;;;;9701835;30;20073;-82
2022/09/05 03:43:05;;;;;;;24.58;16.80;;;11.70;99.90;;;;;;9691834;30;20050;-81
2022/09/05 03:48:29;;;;;;;23.95;16.85;;;11.70;99.90;;;;;;9695935;30;20403;-83
2022/09/05 03:53:58;;;;;;;26.08;17.50;;;11.70;99.90;;;;;;9703714;30;20088;-82
2022/09/05 03:59:27;;;;;;;24.50;17.20;;;11.60;99.90;;;;;;9687208;30;20103;-83
2022/09/05 04:04:32;;;;;;;24.23;16.15;;;11.60;99.90;;;;;;9688691;30;20058;-81
2022/09/05 04:09:38;;;;;;;23.55;16.40;;;11.60;99.90;;;;;;9694964;30;20034;-82
2022/09/05 04:15:05;;;;;;;24.90;15.43;;;11.60;99.90;;;;;;9697401;30;20558;-82
2022/09/05 04:20:16;;;;;;;27.42;17.48;;;11.70;99.90;;;;;;9691081;30;20121;-83
2022/09/05 04:25:54;;;;;;;29.67;19.17;;;11.60;99.90;;;;;;9682748;30;20428;-85
2022/09/05 04:31:08;;;;;;;31.08;19.42;;;11.60;99.90;;;;;;9649397;30;20061;-81
2022/09/05 04:36:09;;;;;;;35.38;21.55;;;11.60;99.90;;;;;;9680828;30;20082;-83
2022/09/05 04:41:15;;;;;;;34.33;21.48;;;11.60;99.90;;;;;;9691912;30;20521;-81
2022/09/05 04:46:35;;;;;;;33.75;22.58;;;11.70;99.90;;;;;;9691811;30;20853;-80
2022/09/05 04:51:51;;;;;;;31.55;21.60;;;11.70;99.90;;;;;;9685704;30;20032;-81
2022/09/05 04:57:07;;;;;;;33.00;22.35;;;11.80;99.90;;;;;;9701554;30;20061;-82
2022/09/05 05:02:24;;;;;;;32.50;21.77;;;11.90;99.90;;;;;;9683003;30;20059;-81
2022/09/05 05:07:39;;;;;;;36.55;23.75;;;11.90;99.90;;;;;;9684598;30;20048;-81
2022/09/05 05:12:55;;;;;;;47.17;22.53;;;12.00;99.90;;;;;;9685410;30;20053;-82
2022/09/05 05:18:17;;;;;;;33.60;21.73;;;12.00;99.90;;;;;;9687635;30;20041;-82
2022/09/05 05:23:47;;;;;;;35.58;21.02;;;12.10;99.90;;;;;;9678260;30;20038;-80
2022/09/05 05:29:11;;;;;;;36.13;20.77;;;12.10;99.90;;;;;;9694712;30;20048;-82
2022/09/05 05:34:30;;;;;;;28.75;19.35;;;12.20;99.90;;;;;;9685239;30;20120;-81
2022/09/05 05:39:36;;;;;;;29.35;19.75;;;12.40;99.90;;;;;;9666400;30;20141;-80
2022/09/05 05:44:38;;;;;;;27.27;19.15;;;12.40;99.90;;;;;;9698664;30;20038;-82
2022/09/05 05:49:56;;;;;;;33.13;19.98;;;12.50;99.90;;;;;;9701028;30;20026;-81
2022/09/05 05:55:18;;;;;;;28.30;18.63;;;12.60;99.90;;;;;;9690830;30;20089;-81
2022/09/05 06:00:54;;;;;;;26.85;16.85;;;12.80;99.90;;;;;;9691940;30;20158;-81
2022/09/05 06:06:13;;;;;;;26.33;18.83;;;13.10;99.90;;;;;;9681550;30;20050;-83
2022/09/05 06:11:43;;;;;;;26.50;17.60;;;13.20;99.90;;;;;;9660191;30;20037;-81
2022/09/05 06:17:13;;;;;;;24.77;16.30;;;13.40;99.90;;;;;;9672192;30;20038;-81
2022/09/05 06:22:37;;;;;;;24.60;16.70;;;13.70;99.90;;;;;;9649971;30;20062;-82
2022/09/05 06:27:44;;;;;;;18.90;13.85;;;13.80;99.90;;;;;;9677068;30;20030;-81
2022/09/05 06:32:56;;;;;;;17.35;14.13;;;14.00;99.90;;;;;;9658502;30;20041;-82
2022/09/05 06:38:20;;;;;;;21.80;12.93;;;14.30;99.90;;;;;;9674324;30;20048;-81
2022/09/05 06:43:32;;;;;;;18.90;11.38;;;14.50;99.90;;;;;;9686252;30;20038;-80
2022/09/05 06:48:51;;;;;;;12.80;10.05;;;14.80;99.90;;;;;;9677204;30;20116;-82
2022/09/05 06:54:27;;;;;;;15.38;10.48;;;15.10;99.90;;;;;;9667557;30;20145;-82
2022/09/05 06:59:52;;;;;;;13.02;8.77;;;15.50;99.90;;;;;;9681475;30;20621;-81
2022/09/05 07:11:04;;;;;;;10.07;7.18;;;16.10;99.90;;;;;;9684141;30;20037;-81
2022/09/05 07:16:16;;;;;;;10.70;7.25;;;16.40;99.90;;;;;;9683208;30;20033;-82
2022/09/05 07:21:29;;;;;;;7.22;5.45;;;16.80;99.90;;;;;;9686880;30;20045;-81
2022/09/05 07:26:34;;;;;;;8.77;5.15;;;17.10;99.90;;;;;;9683919;30;20057;-81
2022/09/05 07:31:37;;;;;;;5.70;4.97;;;17.40;99.90;;;;;;9689834;30;20030;-82
2022/09/05 07:36:44;;;;;;;13.10;5.57;;;17.80;99.90;;;;;;9688633;30;20307;-83
2022/09/05 07:41:52;;;;;;;6.50;4.55;;;18.00;99.90;;;;;;9690150;30;20092;-82
2022/09/05 07:47:06;;;;;;;11.02;5.05;;;18.40;99.90;;;;;;9688721;30;20030;-82
2022/09/05 07:52:18;;;;;;;8.20;4.90;;;18.60;98.10;;;;;;9672917;30;20515;-81
2022/09/05 07:57:27;;;;;;;7.05;4.88;;;19.00;98.60;;;;;;9688131;30;20038;-81
2022/09/05 08:02:28;;;;;;;5.97;5.00;;;19.30;97.00;;;;;;9683724;30;20034;-82
2022/09/05 08:07:34;;;;;;;9.85;5.05;;;19.40;96.30;;;;;;9686856;30;20617;-81
2022/09/05 08:12:49;;;;;;;6.47;4.90;;;19.70;96.10;;;;;;9689575;30;20164;-82
2022/09/05 08:17:53;;;;;;;7.78;5.38;;;19.80;91.90;;;;;;9671294;30;20128;-84
2022/09/05 08:23:06;;;;;;;8.55;5.45;;;20.00;94.90;;;;;;9686893;30;20459;-81
2022/09/05 08:28:34;;;;;;;7.53;5.00;;;20.30;94.30;;;;;;9688632;30;20022;-82
2022/09/05 08:33:36;;;;;;;8.35;6.18;;;20.70;90.30;;;;;;9684837;30;20046;-82
2022/09/05 08:38:41;;;;;;;8.93;5.47;;;21.00;93.30;;;;;;9688059;30;20522;-81
2022/09/05 08:44:00;;;;;;;5.53;4.60;;;21.30;92.40;;;;;;9675487;30;20125;-82
2022/09/05 08:49:45;;;;;;;6.80;4.72;;;21.30;89.40;;;;;;9701720;30;20292;-81
2022/09/05 08:55:04;;;;;;;7.18;4.80;;;21.70;90.40;;;;;;9695726;30;20049;-83
2022/09/05 09:00:08;;;;;;;5.47;4.10;;;22.10;87.90;;;;;;9697466;30;20053;-84
2022/09/05 09:05:09;;;;;;;7.20;4.75;;;22.30;84.40;;;;;;9700315;30;20539;-85
2022/09/05 09:10:25;;;;;;;7.70;4.65;;;22.40;83.90;;;;;;9706860;30;20396;-83
2022/09/05 09:16:03;;;;;;;5.60;4.60;;;22.10;82.50;;;;;;9691605;30;20050;-85
2022/09/05 09:21:42;;;;;;;5.10;3.90;;;21.60;83.90;;;;;;9679267;30;20144;-83
2022/09/05 09:27:01;;;;;;;6.88;4.13;;;21.40;82.70;;;;;;9676754;30;20049;-84
2022/09/05 09:32:08;;;;;;;6.43;4.10;;;21.90;81.70;;;;;;9676493;30;20128;-85
2022/09/05 09:37:46;;;;;;;10.02;4.28;;;22.40;82.20;;;;;;9679677;30;20122;-83
2022/09/05 09:42:56;;;;;;;7.93;4.28;;;22.80;82.30;;;;;;9685770;30;20057;-83
2022/09/05 09:48:32;;;;;;;21.27;4.88;;;23.20;79.70;;;;;;9678415;30;20034;-85
2022/09/05 09:53:51;;;;;;;;;;;23.40;78.40;;;;;;9697447;30;20061;-83
2022/09/05 09:59:29;;;;;;;4.05;3.65;;;23.70;76.10;;;;;;9698304;30;19923;-83
2022/09/05 10:04:42;;;;;;;6.15;3.90;;;24.00;76.70;;;;;;9683706;30;20046;-84
2022/09/05 10:09:53;;;;;;;5.13;3.65;;;24.40;74.40;;;;;;9680150;30;20065;-83
2022/09/05 10:15:14;;;;;;;8.90;3.72;;;24.50;75.10;;;;;;9681579;30;20072;-84
2022/09/05 10:20:21;;;;;;;3.92;3.55;;;24.80;73.40;;;;;;9683101;30;20052;-85
2022/09/05 10:25:34;;;;;;;4.85;3.55;;;24.80;73.20;;;;;;9674821;30;20081;-85
2022/09/05 10:30:50;;;;;;;4.20;3.47;;;24.70;70.60;;;;;;9682084;30;20124;-83
2022/09/05 10:36:16;;;;;;;3.95;3.40;;;24.80;74.00;;;;;;9681803;30;20034;-84
2022/09/05 10:41:21;;;;;;;6.80;3.33;;;24.60;70.90;;;;;;9674349;30;20734;-83
2022/09/05 10:46:32;;;;;;;4.47;3.25;;;24.00;72.10;;;;;;9668107;30;20034;-84
2022/09/05 10:51:47;;;;;;;5.57;3.63;;;23.60;70.50;;;;;;9684780;30;20037;-82
2022/09/05 10:57:27;;;;;;;5.25;3.67;;;22.80;72.70;;;;;;9682320;30;20058;-86
2022/09/05 11:02:29;;;;;;;6.80;4.20;;;21.90;73.90;;;;;;9684910;30;20045;-83
2022/09/05 11:08:00;;;;;;;5.63;3.70;;;21.40;75.60;;;;;;9679880;30;20057;-85
2022/09/05 11:13:26;;;;;;;7.38;4.40;;;21.20;78.30;;;;;;9678472;30;20030;-84
2022/09/05 11:18:44;;;;;;;6.60;4.10;;;21.00;77.90;;;;;;9684184;30;20762;-84
2022/09/05 11:23:54;;;;;;;4.43;3.60;;;21.30;80.70;;;;;;9675332;30;20105;-82
2022/09/05 11:29:10;;;;;;;4.65;3.80;;;21.90;79.00;;;;;;9662263;30;20038;-82
2022/09/05 11:34:33;;;;;;;6.10;3.83;;;22.60;75.10;;;;;;9697875;30;20040;-83
2022/09/05 11:39:49;;;;;;;6.07;3.60;;;23.00;75.00;;;;;;9678520;30;20156;-85
2022/09/05 11:44:56;;;;;;;4.32;3.45;;;23.30;74.10;;;;;;9681783;30;20053;-83
2022/09/05 11:50:11;;;;;;;5.68;3.85;;;23.40;73.40;;;;;;9686056;30;20034;-84
2022/09/05 11:55:24;;;;;;;4.88;3.80;;;24.10;75.30;;;;;;9682097;30;20431;-82
2022/09/05 12:00:30;;;;;;;4.55;3.85;;;24.20;70.50;;;;;;9668791;30;20077;-83
2022/09/05 12:06:06;;;;;;;4.55;3.63;;;24.10;66.90;;;;;;9687565;30;20037;-84
2022/09/05 12:11:06;;;;;;;;;;;23.80;73.00;;;;;;9683922;30;20042;-86
2022/09/05 12:16:35;;;;;;;5.43;3.78;;;23.90;68.30;;;;;;9689968;30;19912;-84
2022/09/05 12:22:01;;;;;;;6.72;4.53;;;23.40;67.30;;;;;;9686744;30;20037;-82
2022/09/05 12:27:14;;;;;;;5.18;4.03;;;22.70;70.50;;;;;;9688982;30;20033;-84
2022/09/05 12:32:24;;;;;;;7.95;4.68;;;22.60;69.40;;;;;;9685679;30;20042;-84
2022/09/05 12:37:49;;;;;;;11.15;7.65;;;22.20;73.20;;;;;;9690114;30;20034;-84
2022/09/05 12:43:07;;;;;;;10.45;7.63;;;22.60;72.50;;;;;;9686364;30;20077;-85
2022/09/05 12:48:25;;;;;;;6.30;4.68;;;23.20;71.80;;;;;;9692327;30;20443;-85
2022/09/05 12:53:45;;;;;;;4.18;3.78;;;23.30;72.20;;;;;;9695529;30;20052;-84
2022/09/05 12:58:54;;;;;;;5.68;4.57;;;23.70;73.10;;;;;;9681766;30;20103;-84
2022/09/05 13:04:20;;;;;;;4.63;4.13;;;24.00;68.00;;;;;;9693086;30;20045;-84
2022/09/05 13:09:36;;;;;;;5.70;3.75;;;24.30;68.40;;;;;;9679187;30;20038;-84
2022/09/05 13:14:48;;;;;;;6.63;4.15;;;24.50;69.70;;;;;;9686721;30;20665;-85
2022/09/05 13:20:14;;;;;;;4.05;3.40;;;24.50;69.60;;;;;;9673636;30;20049;-83
2022/09/05 13:25:25;;;;;;;7.07;3.58;;;24.20;65.40;;;;;;9664217;30;20104;-84
2022/09/05 13:30:27;;;;;;;4.65;3.60;;;23.40;65.30;;;;;;9692732;30;20112;-84
2022/09/05 13:35:32;;;;;;;5.22;3.33;;;22.50;67.50;;;;;;9685092;30;20038;-83
2022/09/05 13:40:47;;;;;;;3.70;3.40;;;21.80;69.00;;;;;;9687683;30;20100;-83
2022/09/05 13:46:09;;;;;;;6.85;4.07;;;22.00;71.50;;;;;;9693546;30;20026;-84
2022/09/05 13:51:20;;;;;;;5.60;3.47;;;22.20;70.00;;;;;;9695939;30;20030;-86
2022/09/05 13:56:25;;;;;;;4.20;3.17;;;22.30;67.30;;;;;;9687154;30;20060;-83
2022/09/05 14:02:11;;;;;;;6.05;3.78;;;22.40;68.10;;;;;;9701083;30;20048;-84
2022/09/05 14:07:45;;;;;;;7.55;4.30;;;22.00;69.40;;;;;;9670196;30;20053;-86
2022/09/05 14:12:58;;;;;;;11.48;5.55;;;21.40;71.60;;;;;;9681957;30;20045;-86
2022/09/05 14:18:14;;;;;;;5.47;3.97;;;20.90;73.10;;;;;;9678663;30;20034;-85
2022/09/05 14:23:15;;;;;;;4.72;3.90;;;21.00;72.80;;;;;;9692723;30;20042;-84
2022/09/05 14:28:31;;;;;;;5.15;3.65;;;21.20;72.60;;;;;;9676418;30;20503;-87
2022/09/05 14:33:38;;;;;;;5.32;3.45;;;21.40;72.70;;;;;;9696784;30;20140;-83
2022/09/05 14:38:57;;;;;;;3.90;3.03;;;21.60;72.00;;;;;;9691196;30;20046;-86
2022/09/05 14:44:09;;;;;;;4.60;3.13;;;21.70;70.10;;;;;;9698735;30;20038;-86
2022/09/05 14:49:30;;;;;;;5.30;3.60;;;21.70;71.50;;;;;;9709283;30;20507;-85
2022/09/05 14:54:38;;;;;;;12.13;4.32;;;21.60;69.70;;;;;;9700631;30;20057;-85
2022/09/05 14:59:49;;;;;;;3.85;3.35;;;21.20;71.40;;;;;;9709206;30;20049;-84
2022/09/05 15:05:26;;;;;;;3.42;2.85;;;21.20;72.30;;;;;;9703868;30;20104;-85
2022/09/05 15:10:42;;;;;;;6.30;3.63;;;21.20;71.60;;;;;;9663041;30;20053;-84
2022/09/05 15:16:11;;;;;;;5.63;3.50;;;21.10;71.80;;;;;;9696822;30;20122;-85
2022/09/05 15:21:24;;;;;;;8.73;4.50;;;21.10;71.60;;;;;;9688261;30;20080;-86
2022/09/05 15:26:29;;;;;;;5.05;3.60;;;21.10;72.20;;;;;;9692654;30;20608;-84
2022/09/05 15:31:30;;;;;;;6.60;3.85;;;21.10;71.10;;;;;;9699043;30;20049;-86
2022/09/05 15:36:35;;;;;;;5.03;3.35;;;21.00;71.50;;;;;;9685392;30;20488;-84
2022/09/05 15:41:36;;;;;;;3.90;3.20;;;21.00;73.10;;;;;;9692682;30;20703;-83
2022/09/05 15:46:40;;;;;;;6.63;3.63;;;20.90;71.80;;;;;;9689807;30;20030;-85
2022/09/05 15:51:48;;;;;;;5.90;3.70;;;20.80;72.00;;;;;;9695717;30;20053;-87
2022/09/05 15:56:51;;;;;;;3.70;3.20;;;20.60;72.80;;;;;;9696403;30;20081;-84
2022/09/05 16:01:51;;;;;;;5.05;3.67;;;20.60;72.90;;;;;;9693830;30;20129;-85
2022/09/05 16:06:57;;;;;;;4.10;3.47;;;20.50;73.80;;;;;;9689425;30;20030;-84
2022/09/05 16:11:58;;;;;;;5.97;3.80;;;20.30;73.90;;;;;;9689255;30;20030;-84
2022/09/05 16:17:17;;;;;;;6.57;4.28;;;20.20;74.30;;;;;;9695530;30;20370;-85
2022/09/05 16:22:31;;;;;;;6.93;4.63;;;20.10;75.20;;;;;;9678710;30;20053;-84
2022/09/05 16:27:34;;;;;;;8.55;4.60;;;19.90;75.80;;;;;;9698431;30;20050;-85
2022/09/05 16:32:38;;;;;;;7.60;3.88;;;19.80;76.80;;;;;;9694155;30;20074;-84
2022/09/05 16:37:47;;;;;;;8.32;4.25;;;19.60;77.80;;;;;;9699325;30;20420;-84
2022/09/05 16:43:14;;;;;;;6.38;4.25;;;19.40;78.70;;;;;;9690905;30;20508;-83
2022/09/05 16:48:33;;;;;;;7.93;4.72;;;19.20;81.00;;;;;;9681412;30;20128;-86
2022/09/05 16:53:40;;;;;;;8.18;5.40;;;18.90;82.40;;;;;;9679758;30;20058;-88
2022/09/05 16:58:47;;;;;;;8.98;5.38;;;18.60;85.00;;;;;;9688247;30;20395;-84
2022/09/05 17:03:55;;;;;;;10.30;6.32;;;18.20;84.80;;;;;;9685275;30;20060;-84
2022/09/05 17:09:03;;;;;;;10.63;6.72;;;17.90;84.00;;;;;;9690789;30;20065;-83
2022/09/05 17:14:13;;;;;;;14.95;6.20;;;17.60;85.40;;;;;;9682037;30;20064;-82
2022/09/05 17:19:24;;;;;;;8.68;5.68;;;17.40;86.60;;;;;;9689712;30;20048;-85
2022/09/05 17:24:25;;;;;;;9.73;6.03;;;17.20;86.40;;;;;;9710795;30;20044;-86
2022/09/05 17:29:53;;;;;;;10.57;5.03;;;16.90;89.00;;;;;;9687843;30;20030;-84
2022/09/05 17:35:19;;;;;;;8.82;5.30;;;16.50;90.10;;;;;;9696144;30;20033;-81
2022/09/05 17:40:58;;;;;;;8.30;5.80;;;16.10;91.00;;;;;;9694707;30;20842;-84
2022/09/05 17:46:27;;;;;;;12.35;6.30;;;15.70;91.90;;;;;;9696706;30;20049;-84
2022/09/05 17:51:28;;;;;;;9.10;6.45;;;15.40;96.00;;;;;;9704335;30;20073;-82
2022/09/05 17:56:38;;;;;;;9.93;5.85;;;15.10;96.40;;;;;;9684769;30;20469;-82
2022/09/05 18:02:00;;;;;;;9.70;6.15;;;15.00;97.80;;;;;;9688281;30;20124;-81
2022/09/05 18:07:29;;;;;;;10.88;5.43;;;15.10;98.40;;;;;;9698699;30;20125;-82
2022/09/05 18:12:48;;;;;;;8.48;6.00;;;14.80;99.90;;;;;;9680907;30;20037;-82
2022/09/05 18:17:51;;;;;;;8.77;5.53;;;14.60;99.90;;;;;;9701914;30;20475;-82
2022/09/05 18:23:16;;;;;;;8.27;5.75;;;14.50;99.90;;;;;;9697432;30;20048;-82
2022/09/05 18:28:41;;;;;;;10.18;5.60;;;14.60;99.90;;;;;;9683459;30;20495;-81
2022/09/05 18:34:28;;;;;;;9.40;6.65;;;14.70;99.90;;;;;;9659235;30;20128;-84
2022/09/05 18:39:31;;;;;;;9.35;5.47;;;14.80;99.90;;;;;;9685766;30;20097;-83
2022/09/05 18:44:47;;;;;;;13.18;8.25;;;14.80;99.90;;;;;;9696692;30;20488;-83
2022/09/05 18:49:52;;;;;;;12.18;6.82;;;14.60;99.90;;;;;;9707544;30;20579;-82
2022/09/05 18:54:58;;;;;;;11.18;6.70;;;14.60;99.90;;;;;;9702257;30;20060;-82
2022/09/05 19:00:07;;;;;;;10.57;6.13;;;14.40;99.90;;;;;;9711269;30;20572;-82
2022/09/05 19:05:22;;;;;;;9.57;6.15;;;14.20;99.90;;;;;;9721507;30;20057;-83
2022/09/05 19:10:27;;;;;;;9.07;6.07;;;14.30;99.90;;;;;;9699690;30;20045;-82
2022/09/05 19:15:33;;;;;;;12.13;6.80;;;14.30;99.90;;;;;;9690856;30;20407;-84
2022/09/05 19:20:52;;;;;;;;;;;14.20;99.90;;;;;;9693771;30;20074;-82
2022/09/05 19:25:58;;;;;;;11.57;6.15;;;14.10;99.90;;;;;;9688874;30;19966;-81
2022/09/05 19:31:03;;;;;;;9.75;5.53;;;14.00;99.90;;;;;;9679194;30;20144;-83
2022/09/05 19:36:19;;;;;;;10.10;5.95;;;13.90;99.90;;;;;;9681094;30;20041;-82
2022/09/05 19:41:22;;;;;;;11.40;6.03;;;13.80;99.90;;;;;;9686583;30;20054;-83
2022/09/05 19:46:23;;;;;;;10.93;5.30;;;13.80;99.90;;;;;;9681469;30;20041;-87
2022/09/05 19:51:24;;;;;;;10.90;5.85;;;13.80;99.90;;;;;;9669961;30;20445;-84
2022/09/05 19:56:36;;;;;;;10.90;5.45;;;13.70;99.90;;;;;;9686526;30;20058;-86
2022/09/05 20:01:41;;;;;;;11.43;6.05;;;13.60;99.90;;;;;;9691906;30;20056;-84
2022/09/05 20:06:42;;;;;;;8.27;5.27;;;13.50;99.90;;;;;;9682414;30;20468;-84
2022/09/05 20:11:56;;;;;;;9.60;5.20;;;13.50;99.90;;;;;;9676163;30;20137;-83
2022/09/05 20:17:16;;;;;;;8.90;5.25;;;13.50;99.90;;;;;;9682792;30;20196;-85
2022/09/05 20:22:24;;;;;;;14.05;5.93;;;13.40;99.90;;;;;;9676082;30;20054;-86
2022/09/05 20:27:28;;;;;;;10.90;5.80;;;13.40;99.90;;;;;;9683694;30;20041;-82
2022/09/05 20:32:41;;;;;;;11.73;5.93;;;13.30;99.90;;;;;;9681144;30;20042;-82
2022/09/05 20:37:43;;;;;;;7.93;4.72;;;13.20;99.90;;;;;;9686353;30;20034;-85
2022/09/05 20:42:45;;;;;;;9.82;5.50;;;13.00;99.90;;;;;;9689680;30;20053;-84
2022/09/05 20:47:49;;;;;;;9.32;5.30;;;13.00;99.90;;;;;;9685499;30;20104;-82
2022/09/05 20:52:54;;;;;;;9.43;4.88;;;12.90;99.90;;;;;;9694686;30;20066;-83
2022/09/05 20:57:55;;;;;;;12.63;5.05;;;12.90;99.90;;;;;;9691227;30;20484;-84
2022/09/05 21:02:58;;;;;;;8.95;5.22;;;12.80;99.90;;;;;;9680828;30;20044;-84
2022/09/05 21:08:18;;;;;;;7.32;4.70;;;12.70;99.90;;;;;;9685498;30;20667;-85
2022/09/05 21:13:40;;;;;;;11.73;4.50;;;12.60;99.90;;;;;;9696601;30;20180;-83
2022/09/05 21:18:42;;;;;;;7.07;4.43;;;12.50;99.90;;;;;;9685300;30;20380;-84
2022/09/05 21:23:43;;;;;;;6.82;4.28;;;12.40;99.90;;;;;;9690591;30;20084;-82
2022/09/05 21:29:11;;;;;;;11.32;5.05;;;12.40;99.90;;;;;;9706175;30;20041;-83
2022/09/05 21:34:25;;;;;;;11.90;4.50;;;12.30;99.90;;;;;;9689366;30;20033;-85
2022/09/05 21:39:30;;;;;;;10.20;4.03;;;12.30;99.90;;;;;;9696209;30;20104;-82
2022/09/05 21:44:32;;;;;;;8.70;4.30;;;12.20;99.90;;;;;;9694143;30;20463;-83
2022/09/05 21:49:35;;;;;;;7.65;4.45;;;12.20;99.90;;;;;;9691354;30;20037;-87
2022/09/05 21:54:40;;;;;;;7.95;4.57;;;12.10;99.90;;;;;;9693255;30;20062;-82
2022/09/05 21:59:41;;;;;;;7.65;4.22;;;12.10;99.90;;;;;;9682964;30;20453;-83
2022/09/05 22:04:42;;;;;;;8.00;3.90;;;12.20;99.90;;;;;;9666859;30;20104;-83
2022/09/05 22:09:43;;;;;;;6.70;3.78;;;12.30;99.90;;;;;;9662277;30;20062;-84
2022/09/05 22:14:43;;;;;;;5.60;3.05;;;12.30;99.90;;;;;;9667787;30;20085;-83
2022/09/05 22:19:48;;;;;;;5.93;3.40;;;12.30;98.90;;;;;;9669155;30;20614;-83
2022/09/05 22:24:56;;;;;;;4.67;3.13;;;12.30;98.00;;;;;;9659448;30;20038;-82
2022/09/05 22:29:57;;;;;;;8.95;4.05;;;12.30;97.70;;;;;;9668019;30;20547;-85
2022/09/05 22:34:58;;;;;;;7.40;3.28;;;12.30;97.70;;;;;;9658944;30;20041;-84
2022/09/05 22:39:59;;;;;;;6.90;3.30;;;12.20;97.70;;;;;;9680899;30;20504;-84
2022/09/05 22:44:59;;;;;;;5.90;2.67;;;12.20;97.20;;;;;;9664874;30;20041;-85
2022/09/05 22:50:00;;;;;;;5.60;2.95;;;12.20;95.80;;;;;;9688865;30;20038;-83
2022/09/05 22:55:00;;;;;;;7.78;3.05;;;12.30;95.30;;;;;;9692104;30;20053;-84
2022/09/05 23:00:01;;;;;;;7.55;3.22;;;12.40;94.70;;;;;;9701251;30;20069;-87
2022/09/05 23:05:03;;;;;;;5.28;2.53;;;12.50;94.00;;;;;;9671934;30;20486;-83
2022/09/05 23:10:04;;;;;;;5.57;2.67;;;12.60;93.50;;;;;;9681039;30;20026;-84
2022/09/05 23:15:05;;;;;;;4.97;2.75;;;12.60;93.00;;;;;;9687065;30;20041;-85
2022/09/05 23:20:06;;;;;;;4.38;2.40;;;12.60;92.80;;;;;;9692538;30;20070;-83
2022/09/05 23:25:07;;;;;;;4.22;2.40;;;12.60;92.40;;;;;;9708466;30;20033;-83
2022/09/05 23:30:08;;;;;;;4.00;2.30;;;12.60;92.50;;;;;;9685253;30;20034;-82
2022/09/05 23:35:09;;;;;;;3.70;2.35;;;12.60;92.50;;;;;;9683860;30;20038;-84
2022/09/05 23:40:20;;;;;;;7.78;2.92;;;12.60;91.80;;;;;;9675167;30;20751;-83
2022/09/05 23:45:22;;;;;;;4.90;2.28;;;12.60;91.50;;;;;;9684002;30;20038;-87
2022/09/05 23:50:25;;;;;;;4.63;2.78;;;12.50;91.40;;;;;;9686631;30;20614;-84
2022/09/05 23:55:26;;;;;;;4.03;2.30;;;12.50;91.40;;;;;;9686473;30;20069;-84
